createdAt,value
2022-10-17T04:30:45.452Z,93.17
2022-10-17T04:31:42.697Z,93.37
2022-10-17T04:32:42.706Z,93.21
2022-10-17T04:33:42.675Z,93.48
2022-10-17T04:34:42.684Z,93.41
2022-10-17T04:35:42.664Z,93.52
2022-10-17T04:36:42.647Z,93.62
2022-10-17T04:37:42.648Z,93.72
2022-10-17T04:38:42.641Z,93.41
2022-10-17T04:39:42.638Z,92.81
2022-10-17T04:40:42.617Z,93.52
2022-10-17T04:41:42.594Z,93.72
2022-10-17T04:42:42.587Z,93.41
2022-10-17T04:43:45.540Z,93.21
2022-10-17T04:44:43.594Z,92.81
2022-10-17T04:45:42.549Z,93.41
2022-10-17T04:46:42.567Z,92.91
2022-10-17T04:47:42.529Z,93.41
2022-10-17T04:48:42.515Z,93.32
2022-10-17T04:49:42.553Z,93.52
2022-10-17T04:50:42.500Z,93.32
2022-10-17T04:51:42.508Z,93.41
2022-10-17T04:52:42.489Z,93.72
2022-10-17T04:53:42.476Z,93.72
2022-10-17T04:54:42.455Z,93.52
2022-10-17T04:55:42.439Z,93.21
2022-10-17T04:56:42.487Z,93.52
2022-10-17T04:57:42.422Z,93.21
2022-10-17T04:58:42.409Z,93.52
2022-10-17T04:59:42.422Z,92.91
2022-10-17T05:00:42.551Z,93.41
2022-10-17T05:01:42.400Z,92.91
2022-10-17T05:02:42.378Z,93.32
2022-10-17T05:03:42.359Z,93.41
2022-10-17T05:04:42.380Z,93.21
2022-10-17T05:05:42.331Z,93.41
2022-10-17T05:06:42.313Z,93.41
2022-10-17T05:07:42.405Z,93.21
2022-10-17T05:08:42.316Z,92.81
2022-10-17T05:09:42.295Z,93.12
2022-10-17T05:10:42.290Z,92.81
2022-10-17T05:11:42.267Z,93.41
2022-10-17T05:12:42.276Z,93.12
2022-10-17T05:13:42.234Z,92.81
2022-10-17T05:14:42.226Z,92.81
2022-10-17T05:15:42.230Z,92.71
2022-10-17T05:16:42.223Z,92.91
2022-10-17T05:17:42.226Z,92.81
2022-10-17T05:18:42.199Z,93.01
2022-10-17T05:19:42.210Z,92.91
2022-10-17T05:20:42.196Z,93.01
2022-10-17T05:21:42.147Z,92.61
2022-10-17T05:22:42.462Z,93.12
2022-10-17T05:23:42.121Z,93.01
2022-10-17T05:24:42.131Z,93.12
2022-10-17T05:25:42.120Z,93.12
2022-10-17T05:26:42.100Z,93.12
2022-10-17T05:27:42.101Z,92.91
2022-10-17T05:28:42.100Z,93.21
2022-10-17T05:29:42.055Z,93.52
2022-10-17T05:30:42.095Z,92.41
2022-10-17T05:31:42.071Z,92.41
2022-10-17T05:32:42.022Z,93.12
2022-10-17T05:33:42.043Z,92.41
2022-10-17T05:34:42.043Z,93.12
2022-10-17T05:35:42.001Z,92.91
2022-10-17T05:36:42.045Z,93.41
2022-10-17T05:37:41.972Z,92.50
2022-10-17T05:38:41.965Z,93.12
2022-10-17T05:39:41.971Z,92.71
2022-10-17T05:40:41.981Z,92.50
2022-10-17T05:41:42.005Z,93.12
2022-10-17T05:42:41.958Z,92.61
2022-10-17T05:43:41.931Z,92.71
2022-10-17T05:44:41.948Z,93.16
2022-10-17T05:45:41.893Z,92.61
2022-10-17T05:46:42.111Z,92.71
2022-10-17T05:47:41.868Z,92.81
2022-10-17T05:48:41.856Z,92.41
2022-10-17T05:49:46.421Z,92.61
2022-10-17T05:50:42.858Z,92.71
2022-10-17T05:51:41.844Z,92.61
2022-10-17T05:52:43.910Z,92.61
2022-10-17T05:53:41.805Z,92.71
2022-10-17T05:54:41.791Z,92.61
2022-10-17T05:55:41.773Z,92.61
2022-10-17T05:56:41.776Z,92.50
2022-10-17T05:57:41.752Z,93.21
2022-10-17T05:58:50.945Z,92.81
2022-10-17T05:59:42.724Z,92.91
2022-10-17T06:00:41.824Z,93.12
2022-10-17T06:01:41.768Z,93.21
2022-10-17T06:02:41.690Z,93.26
2022-10-17T06:03:41.713Z,93.21
2022-10-17T06:04:41.676Z,93.12
2022-10-17T06:05:41.672Z,93.12
2022-10-17T06:06:41.705Z,93.21
2022-10-17T06:07:41.634Z,93.21
2022-10-17T06:08:41.660Z,93.16
2022-10-17T06:09:41.682Z,92.96
2022-10-17T06:10:41.603Z,93.01
2022-10-17T06:11:41.607Z,93.26
2022-10-17T06:12:41.586Z,93.12
2022-10-17T06:13:41.600Z,93.32
2022-10-17T06:14:41.589Z,93.12
2022-10-17T06:15:41.750Z,92.50
2022-10-17T06:16:41.531Z,92.91
2022-10-17T06:17:41.576Z,92.61
2022-10-17T06:18:41.707Z,92.06
2022-10-17T06:19:41.514Z,91.96
2022-10-17T06:20:45.266Z,92.26
2022-10-17T06:21:41.508Z,92.36
2022-10-17T06:22:41.513Z,92.36
2022-10-17T06:23:41.547Z,92.66
2022-10-17T06:24:41.491Z,91.96
2022-10-17T06:25:41.432Z,91.82
2022-10-17T06:26:41.458Z,91.55
2022-10-17T06:27:41.528Z,92.36
2022-10-17T06:28:41.473Z,92.06
2022-10-17T06:29:41.403Z,91.76
2022-10-17T06:30:41.412Z,92.06
2022-10-17T06:31:41.433Z,91.96
2022-10-17T06:32:41.357Z,91.96
2022-10-17T06:33:41.370Z,91.76
2022-10-17T06:34:41.399Z,92.06
2022-10-17T06:35:41.331Z,91.66
2022-10-17T06:36:41.311Z,91.96
2022-10-17T06:37:41.661Z,91.46
2022-10-17T06:38:41.300Z,90.85
2022-10-17T06:39:41.321Z,91.55
2022-10-17T06:40:41.260Z,91.35
2022-10-17T06:41:41.272Z,90.91
2022-10-17T06:42:41.278Z,91.15
2022-10-17T06:43:41.342Z,91.01
2022-10-17T06:44:41.292Z,91.01
2022-10-17T06:45:41.218Z,91.21
2022-10-17T06:46:41.269Z,91.25
2022-10-17T06:47:41.192Z,91.21
2022-10-17T06:48:41.181Z,91.51
2022-10-17T06:49:41.181Z,91.21
2022-10-17T06:50:41.193Z,91.15
2022-10-17T06:51:41.148Z,90.91
2022-10-17T06:52:41.146Z,91.01
2022-10-17T06:53:41.128Z,91.21
2022-10-17T06:54:41.229Z,90.81
2022-10-17T06:55:41.106Z,90.41
2022-10-17T06:56:41.086Z,90.26
2022-10-17T06:57:41.071Z,90.56
2022-10-17T06:58:41.155Z,89.55
2022-10-17T06:59:41.074Z,90.32
2022-10-17T07:00:41.209Z,90.32
2022-10-17T07:01:43.258Z,89.31
2022-10-17T07:02:42.037Z,89.01
2022-10-17T07:03:41.176Z,88.86
2022-10-17T07:04:41.005Z,88.86
2022-10-17T07:05:41.000Z,89.06
2022-10-17T07:06:41.008Z,88.86
2022-10-17T07:07:43.144Z,88.26
2022-10-17T07:08:40.956Z,88.52
2022-10-17T07:09:40.970Z,87.92
2022-10-17T07:10:40.942Z,87.51
2022-10-17T07:11:41.002Z,87.31
2022-10-17T07:12:40.921Z,87.57
2022-10-17T07:13:40.969Z,86.57
2022-10-17T07:14:40.919Z,86.77
2022-10-17T07:15:40.897Z,86.87
2022-10-17T07:16:40.916Z,86.26
2022-10-17T07:17:40.907Z,86.16
2022-10-17T07:18:40.846Z,86.66
2022-10-17T07:19:40.858Z,86.26
2022-10-17T07:20:40.828Z,86.06
2022-10-17T07:21:40.836Z,85.76
2022-10-17T07:22:40.823Z,86.26
2022-10-17T07:23:40.824Z,85.76
2022-10-17T07:24:40.915Z,85.72
2022-10-17T07:25:40.824Z,85.92
2022-10-17T07:26:40.860Z,86.26
2022-10-17T07:27:40.798Z,86.06
2022-10-17T07:28:40.776Z,86.06
2022-10-17T07:29:40.783Z,86.26
2022-10-17T07:30:40.725Z,86.46
2022-10-17T07:31:40.718Z,86.21
2022-10-17T07:32:40.693Z,86.77
2022-10-17T07:33:40.731Z,86.71
2022-10-17T07:34:40.698Z,86.87
2022-10-17T07:35:40.670Z,86.71
2022-10-17T07:36:40.700Z,87.41
2022-10-17T07:37:40.645Z,87.41
2022-10-17T07:38:40.636Z,87.31
2022-10-17T07:39:40.620Z,87.41
2022-10-17T07:40:40.629Z,87.01
2022-10-17T07:41:40.593Z,87.47
2022-10-17T07:42:40.684Z,86.57
2022-10-17T07:43:40.571Z,86.66
2022-10-17T07:44:40.631Z,86.36
2022-10-17T07:45:40.562Z,86.97
2022-10-17T07:46:40.562Z,86.87
2022-10-17T07:47:40.535Z,86.66
2022-10-17T07:48:40.524Z,87.23
2022-10-17T07:49:40.521Z,86.43
2022-10-17T07:50:40.496Z,86.06
2022-10-17T07:51:40.590Z,86.32
2022-10-17T07:52:40.483Z,86.52
2022-10-17T07:53:42.741Z,86.22
2022-10-17T07:54:40.467Z,85.72
2022-10-17T07:55:40.443Z,86.22
2022-10-17T07:56:40.444Z,86.48
2022-10-17T07:57:40.425Z,85.48
2022-10-17T07:58:40.452Z,85.88
2022-10-17T07:59:40.421Z,85.88
2022-10-17T08:00:40.468Z,86.18
2022-10-17T08:01:40.409Z,85.88
2022-10-17T08:02:40.358Z,85.53
2022-10-17T08:03:40.388Z,84.83
2022-10-17T08:04:40.414Z,84.74
2022-10-17T08:05:40.332Z,84.23
2022-10-17T08:06:40.401Z,84.27
2022-10-17T08:07:40.333Z,84.03
2022-10-17T08:08:40.303Z,84.43
2022-10-17T08:09:40.285Z,84.33
2022-10-17T08:10:40.294Z,84.13
2022-10-17T08:11:40.285Z,83.83
2022-10-17T08:12:40.251Z,84.19
2022-10-17T08:13:40.273Z,83.99
2022-10-17T08:14:40.251Z,84.29
2022-10-17T08:15:40.241Z,83.65
2022-10-17T08:16:40.228Z,83.85
2022-10-17T08:17:40.230Z,83.59
2022-10-17T08:18:40.203Z,83.59
2022-10-17T08:19:40.174Z,83.65
2022-10-17T08:20:40.169Z,82.84
2022-10-17T08:21:40.184Z,83.15
2022-10-17T08:22:40.168Z,83.15
2022-10-17T08:23:40.149Z,83.35
2022-10-17T08:24:40.126Z,83.75
2022-10-17T08:25:40.127Z,83.15
2022-10-17T08:26:43.378Z,83.31
2022-10-17T08:27:41.136Z,83.41
2022-10-17T08:28:40.222Z,83.65
2022-10-17T08:29:40.069Z,83.55
2022-10-17T08:30:40.126Z,83.55
2022-10-17T08:31:40.082Z,83.15
2022-10-17T08:32:40.045Z,83.15
2022-10-17T08:33:40.038Z,83.35
2022-10-17T08:34:40.034Z,83.21
2022-10-17T08:35:40.076Z,83.04
2022-10-17T08:36:40.029Z,83.55
2022-10-17T08:37:40.030Z,83.25
2022-10-17T08:38:43.124Z,83.75
2022-10-17T08:39:40.017Z,83.35
2022-10-17T08:40:40.074Z,83.85
2022-10-17T08:41:39.952Z,83.39
2022-10-17T08:42:39.943Z,83.99
2022-10-17T08:43:39.937Z,84.19
2022-10-17T08:44:39.971Z,83.99
2022-10-17T08:45:39.932Z,84.39
2022-10-17T08:46:39.937Z,84.80
2022-10-17T08:47:39.883Z,84.49
2022-10-17T08:48:42.751Z,84.80
2022-10-17T08:49:40.897Z,85.10
2022-10-17T08:50:39.844Z,84.59
2022-10-17T08:51:39.828Z,84.89
2022-10-17T08:52:39.852Z,84.59
2022-10-17T08:53:39.813Z,84.69
2022-10-17T08:54:39.796Z,84.25
2022-10-17T08:55:42.797Z,83.95
2022-10-17T08:56:48.562Z,84.69
2022-10-17T08:57:40.816Z,84.39
2022-10-17T08:58:39.757Z,85.50
2022-10-17T08:59:39.816Z,84.80
2022-10-17T09:00:39.744Z,85.16
2022-10-17T09:01:39.728Z,85.56
2022-10-17T09:02:39.843Z,84.75
2022-10-17T09:03:39.727Z,84.25
2022-10-17T09:04:39.713Z,84.25
2022-10-17T09:05:39.689Z,84.15
2022-10-17T09:06:39.697Z,84.25
2022-10-17T09:07:39.663Z,85.56
2022-10-17T09:08:39.657Z,84.91
2022-10-17T09:09:39.663Z,84.31
2022-10-17T09:10:39.627Z,84.01
2022-10-17T09:11:39.638Z,83.81
2022-10-17T09:12:39.601Z,84.27
2022-10-17T09:13:39.600Z,83.97
2022-10-17T09:14:39.619Z,83.37
2022-10-17T09:15:39.582Z,83.07
2022-10-17T09:16:39.562Z,82.87
2022-10-17T09:17:39.553Z,83.13
2022-10-17T09:18:39.567Z,82.63
2022-10-17T09:19:39.576Z,81.96
2022-10-17T09:20:39.518Z,82.82
2022-10-17T09:21:39.503Z,83.53
2022-10-17T09:22:39.529Z,83.09
2022-10-17T09:23:41.830Z,82.89
2022-10-17T09:24:39.480Z,83.05
2022-10-17T09:25:39.483Z,82.15
2022-10-17T09:26:39.471Z,81.51
2022-10-17T09:27:39.457Z,81.01
2022-10-17T09:28:39.478Z,81.30
2022-10-17T09:29:43.742Z,80.27
2022-10-17T09:30:45.227Z,80.67
2022-10-17T09:31:40.390Z,80.13
2022-10-17T09:32:39.432Z,80.03
2022-10-17T09:33:53.938Z,80.43
2022-10-17T09:34:40.406Z,80.03
2022-10-17T09:35:39.377Z,79.83
2022-10-17T09:36:39.347Z,79.36
2022-10-17T09:37:39.331Z,79.57
2022-10-17T09:38:39.361Z,80.77
2022-10-17T09:39:39.313Z,80.87
2022-10-17T09:40:39.295Z,79.67
2022-10-17T09:41:45.438Z,80.61
2022-10-17T09:42:40.298Z,81.61
2022-10-17T09:43:39.282Z,81.27
2022-10-17T09:44:39.312Z,80.77
2022-10-17T09:45:39.320Z,80.47
2022-10-17T09:46:39.239Z,80.53
2022-10-17T09:47:39.219Z,80.43
2022-10-17T09:48:39.230Z,80.53
2022-10-17T09:49:39.226Z,79.53
2022-10-17T09:50:39.207Z,79.97
2022-10-17T09:51:39.210Z,80.27
2022-10-17T09:52:39.191Z,80.67
2022-10-17T09:53:39.158Z,80.36
2022-10-17T09:54:39.167Z,80.97
2022-10-17T09:55:39.131Z,81.17
2022-10-17T09:56:39.139Z,80.77
2022-10-17T09:57:39.144Z,81.07
2022-10-17T09:58:39.101Z,80.36
2022-10-17T09:59:39.109Z,81.21
2022-10-17T10:00:39.196Z,81.37
2022-10-17T10:01:39.064Z,80.57
2022-10-17T10:02:39.102Z,80.57
2022-10-17T10:03:39.065Z,81.07
2022-10-17T10:04:53.070Z,80.36
2022-10-17T10:05:40.027Z,80.77
2022-10-17T10:06:39.029Z,80.67
2022-10-17T10:07:39.042Z,80.77
2022-10-17T10:08:38.987Z,80.87
2022-10-17T10:09:40.194Z,80.17
2022-10-17T10:10:38.970Z,79.83
2022-10-17T10:11:38.995Z,80.83
2022-10-17T10:12:38.965Z,80.69
2022-10-17T10:13:38.951Z,80.49
2022-10-17T10:14:38.924Z,78.59
2022-10-17T10:15:38.951Z,78.36
2022-10-17T10:16:38.926Z,78.92
2022-10-17T10:17:38.926Z,78.22
2022-10-17T10:18:38.893Z,78.48
2022-10-17T10:19:38.902Z,78.08
2022-10-17T10:20:38.880Z,76.88
2022-10-17T10:21:38.854Z,76.81
2022-10-17T10:22:38.880Z,76.15
2022-10-17T10:23:38.858Z,76.21
2022-10-17T10:24:38.832Z,75.81
2022-10-17T10:25:38.806Z,75.51
2022-10-17T10:26:38.841Z,75.97
2022-10-17T10:27:38.786Z,75.71
2022-10-17T10:28:38.828Z,74.71
2022-10-17T10:29:38.764Z,75.74
2022-10-17T10:30:39.931Z,75.78
2022-10-17T10:31:38.764Z,76.48
2022-10-17T10:32:38.723Z,76.68
2022-10-17T10:33:41.577Z,76.28
2022-10-17T10:34:38.721Z,78.18
2022-10-17T10:35:38.699Z,75.98
2022-10-17T10:36:38.707Z,76.52
2022-10-17T10:37:38.689Z,76.02
2022-10-17T10:38:38.702Z,77.12
2022-10-17T10:39:38.659Z,76.92
2022-10-17T10:40:38.655Z,77.68
2022-10-17T10:41:38.665Z,77.74
2022-10-17T10:42:38.674Z,76.25
2022-10-17T10:43:38.626Z,75.65
2022-10-17T10:44:38.623Z,76.45
2022-10-17T10:45:54.130Z,76.61
2022-10-17T10:46:39.588Z,74.41
2022-10-17T10:47:38.600Z,75.51
2022-10-17T10:48:38.578Z,75.61
2022-10-17T10:49:38.621Z,75.41
2022-10-17T10:50:42.996Z,75.61
2022-10-17T10:51:39.524Z,75.81
2022-10-17T10:52:38.534Z,75.74
2022-10-17T10:53:38.517Z,75.55
2022-10-17T10:55:38.505Z,75.65
2022-10-17T10:56:38.478Z,75.65
2022-10-17T10:57:38.490Z,75.61
2022-10-17T10:58:41.832Z,76.41
2022-10-17T10:59:38.447Z,76.01
2022-10-17T11:00:38.493Z,76.41
2022-10-17T11:01:38.488Z,76.81
2022-10-17T11:02:38.412Z,74.81
2022-10-17T11:03:38.467Z,75.65
2022-10-17T11:04:38.423Z,75.25
2022-10-17T11:05:38.446Z,76.15
2022-10-17T11:06:38.371Z,76.04
2022-10-17T11:07:38.382Z,76.25
2022-10-17T11:08:38.335Z,76.08
2022-10-17T11:09:38.344Z,76.38
2022-10-17T11:10:38.357Z,76.42
2022-10-17T11:11:38.332Z,77.62
2022-10-17T11:12:38.345Z,77.82
2022-10-17T11:13:38.329Z,77.62
2022-10-17T11:14:38.296Z,78.05
2022-10-17T11:15:38.278Z,78.05
2022-10-17T11:16:38.261Z,77.86
2022-10-17T11:17:38.285Z,78.55
2022-10-17T11:18:38.258Z,78.45
2022-10-17T11:19:38.249Z,78.36
2022-10-17T11:20:38.216Z,79.05
2022-10-17T11:21:38.249Z,79.35
2022-10-17T11:22:38.579Z,78.66
2022-10-17T11:23:38.180Z,78.55
2022-10-17T11:24:38.169Z,79.16
2022-10-17T11:25:38.185Z,79.35
2022-10-17T11:26:38.192Z,79.39
2022-10-17T11:27:38.787Z,79.75
2022-10-17T11:28:38.188Z,79.05
2022-10-17T11:29:38.130Z,79.19
2022-10-17T11:30:38.172Z,78.89
2022-10-17T11:31:38.116Z,79.16
2022-10-17T11:32:38.085Z,78.99
2022-10-17T11:33:38.114Z,79.39
2022-10-17T11:34:38.066Z,79.46
2022-10-17T11:35:38.067Z,79.85
2022-10-17T11:36:38.041Z,80.15
2022-10-17T11:37:39.525Z,80.45
2022-10-17T11:38:38.038Z,80.76
2022-10-17T11:39:38.077Z,80.15
2022-10-17T11:40:38.007Z,79.55
2022-10-17T11:41:37.989Z,79.35
2022-10-17T11:42:38.003Z,80.45
2022-10-17T11:43:37.969Z,79.05
2022-10-17T11:44:37.984Z,79.16
2022-10-17T11:45:37.959Z,78.79
2022-10-17T11:46:37.954Z,80.05
2022-10-17T11:47:37.924Z,80.26
2022-10-17T11:48:37.927Z,79.16
2022-10-17T11:49:40.700Z,79.19
2022-10-17T11:53:05.433Z,80.76
2022-10-17T11:53:38.863Z,80.09
2022-10-17T11:54:37.850Z,80.26
2022-10-17T11:55:37.859Z,79.65
2022-10-17T11:56:41.863Z,79.55
2022-10-17T11:57:38.804Z,79.69
2022-10-17T11:58:37.832Z,79.29
2022-10-17T11:59:37.808Z,79.46
2022-10-17T12:00:40.720Z,80.09
2022-10-17T12:01:38.049Z,79.96
2022-10-17T12:02:37.767Z,80.49
2022-10-17T12:03:37.823Z,80.59
2022-10-17T12:04:37.795Z,80.39
2022-10-17T12:05:37.716Z,80.15
2022-10-17T12:06:37.726Z,80.26
2022-10-17T12:07:37.764Z,80.49
2022-10-17T12:08:37.700Z,80.49
2022-10-17T12:09:37.714Z,80.76
2022-10-17T12:10:37.672Z,80.99
2022-10-17T12:11:37.683Z,80.69
2022-10-17T12:12:37.680Z,80.89
2022-10-17T12:13:37.634Z,80.49
2022-10-17T12:14:37.735Z,80.49
2022-10-17T12:15:37.748Z,79.79
2022-10-17T12:16:37.660Z,80.69
2022-10-17T12:17:37.584Z,80.79
2022-10-17T12:18:37.588Z,80.59
2022-10-17T12:19:37.647Z,80.29
2022-10-17T12:20:37.563Z,80.29
2022-10-17T12:21:40.404Z,81.09
2022-10-17T12:22:38.542Z,81.59
2022-10-17T12:23:37.524Z,81.99
2022-10-17T12:24:37.560Z,81.19
2022-10-17T12:25:37.555Z,81.53
2022-10-17T12:26:37.491Z,82.03
2022-10-17T12:27:37.489Z,82.13
2022-10-17T12:28:37.495Z,81.99
2022-10-17T12:29:37.460Z,81.93
2022-10-17T12:30:37.498Z,83.33
2022-10-17T12:31:37.433Z,83.13
2022-10-17T12:32:53.342Z,82.73
2022-10-17T12:33:38.438Z,82.99
2022-10-17T12:34:37.463Z,82.83
2022-10-17T12:35:37.400Z,83.09
2022-10-17T12:36:37.397Z,83.19
2022-10-17T12:37:37.371Z,81.63
2022-10-17T12:38:37.409Z,81.23
2022-10-17T12:39:37.396Z,81.33
2022-10-17T12:40:37.354Z,81.63
2022-10-17T12:41:37.328Z,81.93
2022-10-17T12:42:37.332Z,82.23
2022-10-17T12:43:39.674Z,82.23
2022-10-17T12:44:38.336Z,82.23
2022-10-17T12:45:37.297Z,81.53
2022-10-17T12:46:37.290Z,81.23
2022-10-17T12:47:37.258Z,81.43
2022-10-17T12:48:37.253Z,82.13
2022-10-17T12:49:37.261Z,82.63
2022-10-17T12:50:38.154Z,82.53
2022-10-17T12:51:37.962Z,82.03
2022-10-17T12:52:37.245Z,82.33
2022-10-17T12:53:37.206Z,81.93
2022-10-17T12:54:47.024Z,82.23
2022-10-17T12:55:38.193Z,82.03
2022-10-17T12:56:37.175Z,83.33
2022-10-17T12:57:37.664Z,82.83
2022-10-17T12:58:37.180Z,82.73
2022-10-17T12:59:37.148Z,83.03
2022-10-17T13:00:37.212Z,81.93
2022-10-17T13:01:37.150Z,82.53
2022-10-17T13:02:37.125Z,83.37
2022-10-17T13:03:37.089Z,82.03
2022-10-17T13:04:37.095Z,81.93
2022-10-17T13:05:37.083Z,82.97
2022-10-17T13:06:37.053Z,82.93
2022-10-17T13:07:37.046Z,82.63
2022-10-17T13:08:37.057Z,82.43
2022-10-17T13:09:37.024Z,83.33
2022-10-17T13:10:38.834Z,83.37
2022-10-17T13:11:37.016Z,83.37
2022-10-17T13:12:41.119Z,82.73
2022-10-17T13:13:36.992Z,82.97
2022-10-17T13:14:36.972Z,83.33
2022-10-17T13:15:36.962Z,83.67
2022-10-17T13:16:37.041Z,83.63
2022-10-17T13:17:40.615Z,83.73
2022-10-17T13:18:37.977Z,82.87
2022-10-17T13:20:36.912Z,81.97
2022-10-17T13:21:36.896Z,82.17
2022-10-17T13:22:36.886Z,81.77
2022-10-17T13:23:36.926Z,81.77
2022-10-17T13:24:36.867Z,82.57
2022-10-17T13:25:39.508Z,82.07
2022-10-17T13:26:36.868Z,82.87
2022-10-17T13:27:36.853Z,83.07
2022-10-17T13:28:39.376Z,83.17
2022-10-17T13:29:36.847Z,82.57
2022-10-17T13:30:36.800Z,82.87
2022-10-17T13:31:36.801Z,82.87
2022-10-17T13:32:36.779Z,82.97
2022-10-17T13:33:36.758Z,82.87
2022-10-17T13:34:36.777Z,83.17
2022-10-17T13:35:55.728Z,82.27
2022-10-17T13:36:37.740Z,82.07
2022-10-17T13:37:36.749Z,82.47
2022-10-17T13:38:39.013Z,81.71
2022-10-17T13:39:54.364Z,81.61
2022-10-17T13:40:49.051Z,81.17
2022-10-17T13:41:37.685Z,81.47
2022-10-17T13:42:36.697Z,81.77
2022-10-17T13:43:36.646Z,82.07
2022-10-17T13:44:38.542Z,82.27
2022-10-17T13:45:36.626Z,82.61
2022-10-17T13:46:38.391Z,82.37
2022-10-17T13:47:36.634Z,81.61
2022-10-17T13:48:36.600Z,82.41
2022-10-17T13:49:36.616Z,81.91
2022-10-17T13:50:44.756Z,81.51
2022-10-17T13:51:37.578Z,81.81
2022-10-17T13:52:36.543Z,81.81
2022-10-17T13:53:36.598Z,82.41
2022-10-17T13:54:36.534Z,82.41
2022-10-17T13:55:36.525Z,81.51
2022-10-17T13:56:36.505Z,81.71
2022-10-17T13:57:36.516Z,82.01
2022-10-17T13:58:36.496Z,81.81
2022-10-17T13:59:36.513Z,81.41
2022-10-17T14:00:36.565Z,81.71
2022-10-17T14:01:36.468Z,81.71
2022-10-17T14:02:36.483Z,81.71
2022-10-17T14:03:48.165Z,81.51
2022-10-17T14:05:04.016Z,82.71
2022-10-17T14:05:37.431Z,83.11
2022-10-17T14:06:36.413Z,81.91
2022-10-17T14:07:58.060Z,81.81
2022-10-17T14:08:37.449Z,82.61
2022-10-17T14:09:36.363Z,82.31
2022-10-17T14:10:36.385Z,82.41
2022-10-17T14:11:36.361Z,82.51
2022-10-17T14:12:36.389Z,83.01
2022-10-17T14:13:36.329Z,82.91
2022-10-17T14:14:51.984Z,83.21
2022-10-17T14:15:37.384Z,83.01
2022-10-17T14:16:36.307Z,82.91
2022-10-17T14:17:36.274Z,83.71
2022-10-17T14:18:36.853Z,84.21
2022-10-17T14:19:36.299Z,84.11
2022-10-17T14:21:44.157Z,84.11
2022-10-17T14:22:37.308Z,85.51
2022-10-17T14:23:36.227Z,85.11
2022-10-17T14:24:36.197Z,85.31
2022-10-17T14:25:36.216Z,85.51
2022-10-17T14:26:36.196Z,85.01
2022-10-17T14:27:36.171Z,85.31
2022-10-17T14:28:36.217Z,85.11
2022-10-17T14:29:36.207Z,85.35
2022-10-17T14:30:55.832Z,85.01
2022-10-17T14:31:37.140Z,85.82
2022-10-17T14:32:36.117Z,85.82
2022-10-17T14:33:38.522Z,85.75
2022-10-17T14:34:37.133Z,86.05
2022-10-17T14:35:41.939Z,86.32
2022-10-17T14:36:37.093Z,87.05
2022-10-17T14:37:36.069Z,87.26
2022-10-17T14:38:36.086Z,87.05
2022-10-17T14:39:36.060Z,86.66
2022-10-17T14:40:36.037Z,87.55
2022-10-17T14:41:44.120Z,87.16
2022-10-17T14:42:37.027Z,87.05
2022-10-17T14:43:36.018Z,86.96
2022-10-17T14:44:35.980Z,87.26
2022-10-17T14:45:35.992Z,87.16
2022-10-17T14:46:35.961Z,87.05
2022-10-17T14:47:43.682Z,86.96
2022-10-17T14:48:36.971Z,86.96
2022-10-17T14:49:35.964Z,86.85
2022-10-17T14:50:36.046Z,87.60
2022-10-17T14:51:44.928Z,87.76
2022-10-17T14:52:37.053Z,88.50
2022-10-17T14:53:35.885Z,88.56
2022-10-17T14:54:35.924Z,87.80
2022-10-17T14:55:35.882Z,88.50
2022-10-17T14:56:35.896Z,88.50
2022-10-17T14:57:35.849Z,88.60
2022-10-17T14:58:35.845Z,88.50
2022-10-17T14:59:53.384Z,88.80
2022-10-17T15:00:36.813Z,88.50
2022-10-17T15:01:35.837Z,89.30
2022-10-17T15:02:35.798Z,88.70
2022-10-17T15:03:35.849Z,89.70
2022-10-17T15:04:35.792Z,89.61
2022-10-17T15:05:35.777Z,89.90
2022-10-17T15:06:35.747Z,89.50
2022-10-17T15:07:35.734Z,89.61
2022-10-17T15:08:35.817Z,89.90
2022-10-17T15:09:35.709Z,90.00
2022-10-17T15:10:35.754Z,90.50
2022-10-17T15:11:35.684Z,90.50
2022-10-17T15:12:35.670Z,89.95
2022-10-17T15:13:40.958Z,89.65
2022-10-17T15:14:36.659Z,89.85
2022-10-17T15:15:35.684Z,90.25
2022-10-17T15:16:35.654Z,90.15
2022-10-17T15:17:35.716Z,90.55
2022-10-17T15:18:35.615Z,90.35
2022-10-17T15:19:35.619Z,90.75
2022-10-17T15:20:35.589Z,91.25
2022-10-17T15:21:43.205Z,91.69
2022-10-17T15:22:36.584Z,91.39
2022-10-17T15:23:35.556Z,91.39
2022-10-17T15:24:35.548Z,91.19
2022-10-17T15:25:35.539Z,91.19
2022-10-17T15:26:35.567Z,91.19
2022-10-17T15:27:35.584Z,91.60
2022-10-17T15:28:35.538Z,91.60
2022-10-17T15:29:35.509Z,91.69
2022-10-17T15:30:35.484Z,90.99
2022-10-17T15:31:35.485Z,91.60
2022-10-17T15:32:35.494Z,91.50
2022-10-17T15:33:35.467Z,91.19
2022-10-17T15:34:35.461Z,91.19
2022-10-17T15:35:35.427Z,90.79
2022-10-17T15:36:35.417Z,90.49
2022-10-17T15:37:35.457Z,90.94
2022-10-17T15:38:35.406Z,90.29
2022-10-17T15:39:35.430Z,90.59
2022-10-17T15:40:35.375Z,90.53
2022-10-17T15:41:35.367Z,90.44
2022-10-17T15:42:35.373Z,90.44
2022-10-17T15:43:35.373Z,89.83
2022-10-17T15:44:35.331Z,89.83
2022-10-17T15:45:35.317Z,89.63
2022-10-17T15:46:35.326Z,89.94
2022-10-17T15:47:35.301Z,89.73
2022-10-17T15:48:35.318Z,90.33
2022-10-17T15:49:35.283Z,90.44
2022-10-17T15:50:35.272Z,90.33
2022-10-17T15:51:35.264Z,90.44
2022-10-17T15:52:35.247Z,90.44
2022-10-17T15:53:35.278Z,90.44
2022-10-17T15:54:35.213Z,90.78
2022-10-17T15:55:35.267Z,90.37
2022-10-17T15:56:35.206Z,90.48
2022-10-17T15:57:35.183Z,90.08
2022-10-17T15:58:35.222Z,90.88
2022-10-17T15:59:35.188Z,89.98
2022-10-17T16:00:35.233Z,90.48
2022-10-17T16:01:35.159Z,90.78
2022-10-17T16:02:35.132Z,90.28
2022-10-17T16:03:35.121Z,90.68
2022-10-17T16:04:35.111Z,90.17
2022-10-17T16:05:35.131Z,90.88
2022-10-17T16:06:35.107Z,91.18
2022-10-17T16:07:35.072Z,90.78
2022-10-17T16:08:35.059Z,91.28
2022-10-17T16:09:35.047Z,91.28
2022-10-17T16:10:35.096Z,90.52
2022-10-17T16:11:35.061Z,90.82
2022-10-17T16:12:35.017Z,90.52
2022-10-17T16:13:35.015Z,90.62
2022-10-17T16:14:35.015Z,90.52
2022-10-17T16:15:34.990Z,91.02
2022-10-17T16:16:35.014Z,91.42
2022-10-17T16:17:34.973Z,91.63
2022-10-17T16:18:34.965Z,91.63
2022-10-17T16:19:34.995Z,91.63
2022-10-17T16:20:34.975Z,91.63
2022-10-17T16:21:34.932Z,91.42
2022-10-17T16:22:34.935Z,91.52
2022-10-17T16:23:34.898Z,91.52
2022-10-17T16:24:34.910Z,91.57
2022-10-17T16:25:34.911Z,91.32
2022-10-17T16:26:34.877Z,91.67
2022-10-17T16:27:34.863Z,92.03
2022-10-17T16:28:34.881Z,91.77
2022-10-17T16:29:34.862Z,91.77
2022-10-17T16:30:34.858Z,91.77
2022-10-17T16:31:34.875Z,91.67
2022-10-17T16:32:34.811Z,91.97
2022-10-17T16:33:34.810Z,91.67
2022-10-17T16:34:34.783Z,91.87
2022-10-17T16:35:37.482Z,92.07
2022-10-17T16:36:34.763Z,92.07
2022-10-17T16:37:34.770Z,91.57
2022-10-17T16:38:34.764Z,91.87
2022-10-17T16:39:34.739Z,91.47
2022-10-17T16:40:34.705Z,91.91
2022-10-17T16:41:34.715Z,91.82
2022-10-17T16:42:34.700Z,91.61
2022-10-17T16:43:34.709Z,91.51
2022-10-17T16:44:34.666Z,91.71
2022-10-17T16:45:34.661Z,92.11
2022-10-17T16:46:34.710Z,92.41
2022-10-17T16:47:34.647Z,92.32
2022-10-17T16:48:34.810Z,92.11
2022-10-17T16:49:34.611Z,92.41
2022-10-17T16:50:34.628Z,92.22
2022-10-17T16:51:34.623Z,92.22
2022-10-17T16:52:34.605Z,92.72
2022-10-17T16:53:34.580Z,92.61
2022-10-17T16:54:34.566Z,93.02
2022-10-17T16:55:34.602Z,92.52
2022-10-17T16:56:34.570Z,92.92
2022-10-17T16:57:34.646Z,92.76
2022-10-17T16:58:34.590Z,92.76
2022-10-17T16:59:34.573Z,92.66
2022-10-17T17:00:34.625Z,92.76
2022-10-17T17:01:34.492Z,92.66
2022-10-17T17:02:34.764Z,92.86
2022-10-17T17:03:34.488Z,92.76
2022-10-17T17:04:34.455Z,92.86
2022-10-17T17:05:34.459Z,92.36
2022-10-17T17:06:34.481Z,92.46
2022-10-17T17:07:34.427Z,92.76
2022-10-17T17:08:34.415Z,92.86
2022-10-17T17:09:34.438Z,92.86
2022-10-17T17:10:34.423Z,92.96
2022-10-17T17:11:34.386Z,93.07
2022-10-17T17:12:34.425Z,92.76
2022-10-17T17:13:34.366Z,93.07
2022-10-17T17:14:34.375Z,93.07
2022-10-17T17:15:34.365Z,93.07
2022-10-17T17:16:34.321Z,92.76
2022-10-17T17:17:52.396Z,92.86
2022-10-17T17:18:35.332Z,92.56
2022-10-17T17:19:34.306Z,92.56
2022-10-17T17:20:34.319Z,92.56
2022-10-17T17:21:34.266Z,92.76
2022-10-17T17:22:34.267Z,92.76
2022-10-17T17:23:34.258Z,92.71
2022-10-17T17:24:34.254Z,92.71
2022-10-17T17:25:34.273Z,92.86
2022-10-17T17:26:34.226Z,92.86
2022-10-17T17:27:34.195Z,93.07